Terminal Aerodrome Forecast
Issued by NWS

Home | Current Version | Previous Version | Text Only | Print | Product List | Glossary On
Versions: 1 2 3 4 5 6 7 8 9 10 11 12 13 14 15
044
FTUS45 KABQ 302337
TAFFMN
TAF
KFMN 302337Z 3100/3124 26010G18KT P6SM SCT110 SCT200
     FM310100 26010G20KT P6SM VCTS BKN100CB
     FM310300 28010KT P6SM VCSH SCT110 BKN200
     FM310700 08005KT P6SM SCT120
     FM311900 27008KT P6SM FEW090
     FM312300 27010G16KT P6SM VCSH SCT100 SCT150=

USA.gov is the U.S. government's official web portal to all federal, state and local government web resources and services.